Airfield :
LOGIN :

Register | Disclaimer

   EN    FR    IT 

 










Legend :    VFR   Marginal VFR   IFR   Intensive IFR   Very Intensive IFR
Visi :
Ceiling :
>= 8 km
>= 3000ft
5 to 8 km
1000 to 3000 ft
1500m to 5 km
500 to 1000 ft
800 to 1500m
200 to 500 ft
< 800m
< 200 ft
Symbols :   Thunderstorms  Fog  Heavy snow  Heavy precipitations  Wind > 20 kt
SIGMETs :     Misc.  Thunderstorms  Icing  Turbulence  Mountain Waves  Volcanic Ashes






- Airport Elevation : 236 ft
- IATA code : MMX


ESMS - Malmö Sturup

CURRENT METAR :
  • 211650Z 26019KT 9999 FEW036 09/04 Q0989

EXPIRED METARs :
  • 211620Z 27016KT CAVOK 09/04 Q0988
  • 211550Z 26018KT 9999 FEW033 09/04 Q0988
  • 211520Z 26019G30KT 9999 SCT048 09/04 Q0987
  • 211450Z 27018KT CAVOK 09/04 Q0987
  • 211420Z 26017G30KT 9999 FEW036 SCT053 BKN064 09/04 Q0986

TAF TAF ESMS
Valid from the 21 at 12:00 until the 22 at 12:00 UTC


211111Z 2112/2212 27015KT 9999 SCT030
TEMPO 2112/2203 28018G30KT SCT020CB
BECMG 2206/2208 4000 SHRA BKN008 BKN020CB
PROB40
TEMPO 2206/2209 TSRA
BECMG 2208/2210 9999 NSW SCT025
TEMPO 2210/2212 SCT018CB



MET'MAP, your aeronautical weather chart ! - Copyright ORBIFLY December 2007 - Disclaimer

ORBIFLY MET'MAP TEAM :

Programming & Development : Alexandra Zaïnal
Concept & original design : Baudouin d'Aumeries
Assistance for programming : Marc-Olivier Méhu
Technical & hardware support : Manuel Goepfert

Contact : metmap@orbifly.com




SOURCES & CREDITS :

   NOAA